Time;durP1;ratioP1;P1;durP2;ratioP2;P2;SDS_P1;SDS_P2;PMS_P1;PMS_P2;Temp;Humidity;BMP_temperature;BMP_pressure;BME280_temperature;BME280_humidity;BME280_pressure;Samples;Min_cycle;Max_cycle;Signal;HPM_P1;HPM_P2
2021/09/13 00:02:16;;;;;;;3.63;1.15;;;23.60;47.60;;;;;;5061389;28;20068;-47
2021/09/13 00:04:45;;;;;;;1.80;0.70;;;23.50;47.70;;;;;;5062010;28;20131;-49
2021/09/13 00:07:12;;;;;;;0.63;0.60;;;23.50;47.80;;;;;;5063012;28;20055;-48
2021/09/13 00:09:39;;;;;;;0.90;0.75;;;23.40;47.80;;;;;;5058949;28;20519;-49
2021/09/13 00:12:07;;;;;;;1.63;0.80;;;23.40;48.00;;;;;;5048560;28;20227;-46
2021/09/13 00:14:35;;;;;;;2.35;1.02;;;23.40;48.10;;;;;;5063305;28;20159;-46
2021/09/13 00:17:05;;;;;;;1.85;0.52;;;23.30;48.20;;;;;;5063663;28;20045;-46
2021/09/13 00:19:34;;;;;;;2.08;0.77;;;23.30;48.30;;;;;;5063311;28;20064;-47
2021/09/13 00:22:01;;;;;;;1.23;0.98;;;23.20;48.40;;;;;;5062974;28;20515;-46
2021/09/13 00:24:29;;;;;;;2.50;1.42;;;23.20;48.50;;;;;;5073901;28;20056;-48
2021/09/13 00:27:14;;;;;;;3.30;1.50;;;23.20;48.80;;;;;;5063311;28;20122;-47
2021/09/13 00:29:46;;;;;;;1.63;0.70;;;23.10;48.90;;;;;;5061673;28;20045;-46
2021/09/13 00:32:13;;;;;;;1.65;0.47;;;23.10;49.00;;;;;;5064464;28;20063;-47
2021/09/13 00:34:42;;;;;;;2.53;1.00;;;23.10;49.10;;;;;;5061437;28;20040;-45
2021/09/13 00:37:11;;;;;;;10.88;1.48;;;23.10;49.20;;;;;;5063127;28;20047;-46
2021/09/13 00:39:40;;;;;;;2.05;0.60;;;23.00;49.30;;;;;;5072052;28;20052;-49
2021/09/13 00:42:08;;;;;;;0.70;0.70;;;23.00;49.40;;;;;;5062799;28;20045;-50
2021/09/13 00:44:36;;;;;;;1.20;0.50;;;23.00;49.60;;;;;;5047132;28;20099;-50
2021/09/13 00:47:03;;;;;;;3.75;0.57;;;23.00;49.60;;;;;;5063226;28;20127;-48
2021/09/13 00:49:30;;;;;;;9.38;1.00;;;23.00;49.70;;;;;;5061124;28;20136;-47
2021/09/13 00:51:59;;;;;;;1.13;0.45;;;22.90;49.80;;;;;;5061845;28;20045;-47
2021/09/13 00:54:26;;;;;;;0.73;0.47;;;22.90;49.90;;;;;;5058565;28;20127;-47
2021/09/13 00:56:53;;;;;;;2.22;0.82;;;22.90;50.00;;;;;;5047986;28;20040;-48
2021/09/13 00:59:21;;;;;;;2.53;0.80;;;22.90;50.00;;;;;;5032840;28;20531;-46
2021/09/13 01:01:48;;;;;;;2.97;1.15;;;22.90;50.00;;;;;;5049760;28;20045;-47
2021/09/13 01:04:15;;;;;;;0.98;0.75;;;22.80;50.10;;;;;;5042918;28;20139;-48
2021/09/13 01:06:42;;;;;;;0.63;0.52;;;22.80;50.20;;;;;;5037688;28;20041;-47
2021/09/13 01:09:10;;;;;;;2.22;0.47;;;22.80;50.20;;;;;;5046373;28;20468;-46
2021/09/13 01:11:38;;;;;;;2.65;0.60;;;22.80;50.30;;;;;;5045696;28;20588;-46
2021/09/13 01:14:05;;;;;;;1.40;0.95;;;22.70;50.30;;;;;;5050194;28;20151;-48
2021/09/13 01:16:32;;;;;;;1.98;0.77;;;22.70;50.40;;;;;;5049486;28;20081;-46
2021/09/13 01:18:59;;;;;;;1.45;0.47;;;22.70;50.50;;;;;;5047214;28;20061;-48
2021/09/13 01:21:27;;;;;;;2.30;0.60;;;22.70;50.70;;;;;;5048022;28;20420;-46
2021/09/13 01:23:56;;;;;;;2.78;0.65;;;22.70;50.80;;;;;;5047755;28;20045;-47
2021/09/13 01:26:23;;;;;;;1.58;1.05;;;22.70;50.80;;;;;;5049059;28;20045;-46
2021/09/13 01:28:50;;;;;;;1.58;0.65;;;22.60;50.80;;;;;;5047393;28;20048;-46
2021/09/13 01:31:21;;;;;;;1.40;0.80;;;22.60;50.90;;;;;;5056732;28;20036;-47
2021/09/13 01:33:48;;;;;;;2.30;0.57;;;22.60;51.00;;;;;;5047081;28;20049;-49
2021/09/13 01:36:24;;;;;;;1.90;0.82;;;22.60;51.10;;;;;;5047514;28;20087;-46
2021/09/13 01:38:52;;;;;;;4.10;0.40;;;22.50;51.10;;;;;;5047497;28;25488;-50
2021/09/13 01:41:21;;;;;;;1.63;0.40;;;22.50;51.20;;;;;;5048743;28;20616;-46
2021/09/13 01:43:51;;;;;;;2.85;1.42;;;22.50;51.20;;;;;;5045414;28;20080;-47
2021/09/13 01:46:18;;;;;;;3.20;0.75;;;22.50;51.30;;;;;;5060765;28;20657;-47
2021/09/13 01:48:50;;;;;;;1.30;0.43;;;22.50;51.30;;;;;;5047116;28;20037;-48
2021/09/13 01:51:17;;;;;;;1.27;0.73;;;22.40;51.20;;;;;;5044750;28;20049;-46
2021/09/13 01:53:46;;;;;;;3.88;0.40;;;22.40;51.30;;;;;;5045337;28;20056;-45
2021/09/13 01:56:14;;;;;;;4.93;0.90;;;22.40;51.40;;;;;;5043789;28;20045;-49
2021/09/13 01:58:43;;;;;;;4.13;0.70;;;22.30;51.40;;;;;;5046792;28;20033;-46
2021/09/13 02:01:10;;;;;;;2.50;1.10;;;22.30;51.50;;;;;;5046401;28;20071;-48
2021/09/13 02:03:40;;;;;;;1.42;0.88;;;22.30;51.50;;;;;;5046415;28;20048;-47
2021/09/13 02:06:08;;;;;;;2.72;0.88;;;22.30;51.60;;;;;;5046388;28;20226;-49
2021/09/13 02:08:35;;;;;;;2.33;0.75;;;22.30;51.60;;;;;;5048269;28;20138;-46
2021/09/13 02:11:06;;;;;;;8.23;1.17;;;22.30;51.70;;;;;;5043888;28;20045;-46
2021/09/13 02:13:35;;;;;;;1.50;0.80;;;22.20;51.70;;;;;;5043744;28;20095;-45
2021/09/13 02:16:04;;;;;;;3.03;0.65;;;22.20;51.80;;;;;;5045250;28;20787;-47
2021/09/13 02:18:33;;;;;;;0.75;0.75;;;22.20;51.80;;;;;;5058408;28;20591;-47
2021/09/13 02:21:00;;;;;;;4.50;0.82;;;22.20;51.80;;;;;;5052840;28;20041;-46
2021/09/13 02:23:27;;;;;;;1.88;0.60;;;22.20;51.90;;;;;;5043688;28;20080;-47
2021/09/13 02:26:01;;;;;;;2.95;0.73;;;22.10;51.80;;;;;;5042497;28;20083;-46
2021/09/13 02:28:28;;;;;;;3.72;0.57;;;22.10;51.90;;;;;;5045115;28;20456;-45
2021/09/13 02:30:55;;;;;;;0.57;0.43;;;22.10;51.90;;;;;;5054244;28;20045;-47
2021/09/13 02:33:25;;;;;;;1.13;0.40;;;22.10;51.90;;;;;;5047790;28;20501;-46
2021/09/13 02:35:52;;;;;;;0.95;0.45;;;22.00;51.80;;;;;;5047643;28;20049;-46
2021/09/13 02:38:20;;;;;;;4.97;0.77;;;22.00;51.70;;;;;;5047177;28;20099;-45
2021/09/13 02:40:47;;;;;;;1.85;0.47;;;22.00;52.20;;;;;;5046408;28;20133;-46
2021/09/13 02:43:15;;;;;;;2.58;0.65;;;22.00;51.60;;;;;;5051425;28;20136;-46
2021/09/13 02:45:42;;;;;;;1.85;0.20;;;22.00;51.60;;;;;;5045889;28;20044;-50
2021/09/13 02:48:10;;;;;;;2.53;0.30;;;22.00;51.50;;;;;;5045739;28;20124;-46
2021/09/13 02:50:38;;;;;;;1.42;0.32;;;22.00;52.00;;;;;;5045801;28;20520;-50
2021/09/13 02:53:05;;;;;;;0.82;0.40;;;22.00;51.40;;;;;;5045316;28;20104;-50
2021/09/13 02:55:35;;;;;;;0.45;0.25;;;22.00;51.20;;;;;;5045655;28;20045;-46
2021/09/13 02:58:03;;;;;;;1.95;0.60;;;21.90;51.10;;;;;;5053521;28;20037;-46
2021/09/13 03:00:31;;;;;;;0.50;0.35;;;22.00;51.00;;;;;;5045263;28;20033;-49
2021/09/13 03:03:03;;;;;;;1.33;0.30;;;22.00;50.90;;;;;;5030153;28;20048;-50
2021/09/13 03:05:31;;;;;;;2.42;1.08;;;22.00;50.90;;;;;;5034883;28;20053;-47
2021/09/13 03:08:03;;;;;;;3.47;0.65;;;21.90;50.80;;;;;;5043234;28;20045;-46
2021/09/13 03:10:31;;;;;;;7.63;1.27;;;22.00;50.90;;;;;;5042099;28;20065;-48
2021/09/13 03:12:59;;;;;;;6.53;0.65;;;21.90;50.90;;;;;;5053003;28;20412;-49
2021/09/13 03:15:26;;;;;;;0.85;0.47;;;21.90;50.90;;;;;;5057553;28;20421;-48
2021/09/13 03:17:55;;;;;;;2.75;1.73;;;22.00;51.00;;;;;;5037454;28;20068;-48
2021/09/13 03:20:22;;;;;;;3.30;0.73;;;21.90;50.90;;;;;;5047228;28;20041;-48
2021/09/13 03:22:50;;;;;;;1.10;0.88;;;21.90;50.90;;;;;;5045219;28;20464;-50
2021/09/13 03:25:20;;;;;;;7.47;0.52;;;21.90;50.80;;;;;;5050691;28;20063;-48
2021/09/13 03:27:47;;;;;;;1.48;0.30;;;22.00;51.00;;;;;;5046624;28;20078;-51
2021/09/13 03:30:14;;;;;;;1.05;0.40;;;21.90;50.90;;;;;;5045137;28;20302;-51
2021/09/13 03:32:44;;;;;;;2.92;0.70;;;21.90;51.00;;;;;;5045286;28;20135;-49
2021/09/13 03:35:12;;;;;;;8.02;0.77;;;21.90;51.00;;;;;;5044660;28;20048;-47
2021/09/13 03:37:39;;;;;;;2.08;0.55;;;21.90;51.10;;;;;;5045557;28;20041;-47
2021/09/13 03:40:09;;;;;;;0.85;0.50;;;21.90;51.20;;;;;;5045465;28;20037;-47
2021/09/13 03:42:37;;;;;;;1.17;0.43;;;21.90;51.20;;;;;;5056210;28;20045;-47
2021/09/13 03:45:05;;;;;;;0.80;0.38;;;21.90;51.20;;;;;;5059619;28;20045;-50
2021/09/13 03:47:56;;;;;;;1.00;0.40;;;21.90;51.30;;;;;;5032373;28;20053;-48
2021/09/13 03:50:24;;;;;;;3.33;0.93;;;21.80;51.30;;;;;;5046842;28;20056;-49
2021/09/13 03:52:52;;;;;;;2.47;0.70;;;21.80;51.30;;;;;;5052330;28;20037;-46
2021/09/13 03:55:20;;;;;;;0.80;0.80;;;21.80;51.30;;;;;;5047085;28;20469;-48
2021/09/13 03:57:48;;;;;;;1.75;0.50;;;21.80;51.40;;;;;;5045061;28;20072;-47
2021/09/13 04:00:16;;;;;;;2.83;0.70;;;21.80;52.00;;;;;;5039089;28;20045;-45
2021/09/13 04:02:47;;;;;;;1.50;1.10;;;21.80;51.50;;;;;;5044585;28;20035;-47
2021/09/13 04:05:20;;;;;;;3.22;0.63;;;21.80;51.40;;;;;;5044472;28;20124;-49
2021/09/13 04:11:18;;;;;;;2.72;0.60;;;21.80;51.40;;;;;;5061488;28;20053;-48
2021/09/13 04:14:08;;;;;;;0.55;0.20;;;21.80;51.50;;;;;;5045117;28;20509;-48
2021/09/13 04:16:39;;;;;;;3.80;0.60;;;21.70;51.90;;;;;;5039953;28;20509;-48
2021/09/13 04:19:20;;;;;;;2.35;0.40;;;21.80;52.80;;;;;;5044408;28;20037;-46
2021/09/13 04:22:05;;;;;;;6.05;0.28;;;21.80;52.30;;;;;;5042515;28;20406;-48
2021/09/13 04:24:48;;;;;;;1.83;0.13;;;21.90;52.30;;;;;;5043855;28;20544;-47
2021/09/13 04:27:38;;;;;;;0.93;0.17;;;22.00;52.90;;;;;;5041874;28;20048;-47
2021/09/13 04:30:27;;;;;;;2.70;0.20;;;22.10;52.30;;;;;;5056481;28;20192;-47
2021/09/13 04:33:13;;;;;;;2.60;0.38;;;22.20;52.30;;;;;;5045356;28;20038;-46
2021/09/13 04:36:05;;;;;;;3.88;0.40;;;22.30;52.20;;;;;;5046444;28;20045;-49
2021/09/13 04:38:53;;;;;;;2.35;0.30;;;22.30;52.10;;;;;;5046644;28;20064;-47
2021/09/13 04:41:34;;;;;;;2.50;0.10;;;22.50;52.10;;;;;;5027425;28;20056;-48
2021/09/13 04:44:33;;;;;;;0.55;0.20;;;22.50;52.00;;;;;;5035924;28;20100;-47
2021/09/13 04:47:17;;;;;;;0.80;0.20;;;22.60;52.00;;;;;;5030320;28;20582;-47
2021/09/13 04:50:13;;;;;;;0.40;0.15;;;22.70;51.90;;;;;;5035512;28;20130;-50
2021/09/13 04:53:02;;;;;;;1.60;0.70;;;22.70;51.80;;;;;;5031771;28;20559;-47
2021/09/13 04:55:30;;;;;;;0.60;0.13;;;22.80;51.70;;;;;;5030209;28;20114;-49
2021/09/13 04:57:57;;;;;;;0.57;0.30;;;22.90;51.70;;;;;;5029962;28;20521;-47
2021/09/13 05:00:27;;;;;;;0.88;0.88;;;22.90;51.60;;;;;;5030261;28;20119;-48
2021/09/13 05:02:55;;;;;;;0.85;0.15;;;23.00;51.50;;;;;;5030130;28;20060;-47
2021/09/13 05:05:22;;;;;;;0.30;0.30;;;23.10;51.40;;;;;;5031244;28;20552;-49
2021/09/13 05:07:51;;;;;;;0.65;0.30;;;23.10;51.30;;;;;;5046406;28;20041;-51
2021/09/13 05:10:18;;;;;;;0.85;0.20;;;23.20;51.30;;;;;;5046136;28;20085;-47
2021/09/13 05:12:46;;;;;;;0.82;0.63;;;23.20;51.20;;;;;;5029542;28;20041;-48
2021/09/13 05:15:17;;;;;;;0.90;0.28;;;23.20;51.20;;;;;;5029746;28;20041;-48
2021/09/13 05:17:45;;;;;;;0.20;0.20;;;23.30;51.20;;;;;;5047530;28;20104;-47
2021/09/13 05:20:14;;;;;;;0.65;0.20;;;23.40;51.10;;;;;;5050553;28;20124;-47
2021/09/13 05:22:41;;;;;;;0.15;0.15;;;23.40;51.00;;;;;;5044341;28;20501;-46
2021/09/13 05:25:10;;;;;;;0.20;0.20;;;23.40;50.90;;;;;;5036196;28;20108;-46
2021/09/13 05:27:37;;;;;;;6.60;0.20;;;23.40;50.90;;;;;;5045308;28;20041;-47
2021/09/13 05:30:06;;;;;;;0.60;0.60;;;23.50;50.80;;;;;;5047682;28;20048;-50
2021/09/13 05:32:35;;;;;;;0.60;0.25;;;23.50;50.80;;;;;;5048510;28;20507;-49
2021/09/13 05:35:04;;;;;;;0.82;0.30;;;23.50;50.80;;;;;;5048539;28;20047;-50
2021/09/13 05:37:33;;;;;;;1.23;0.30;;;23.60;50.80;;;;;;5044840;28;20029;-49
2021/09/13 05:40:00;;;;;;;0.30;0.30;;;23.60;50.70;;;;;;5044556;28;20114;-50
2021/09/13 05:42:28;;;;;;;0.68;0.20;;;23.60;50.60;;;;;;5047354;28;20489;-47
2021/09/13 05:44:55;;;;;;;0.98;0.20;;;23.70;50.60;;;;;;5030781;28;20720;-48
2021/09/13 05:47:22;;;;;;;0.57;0.30;;;23.70;50.60;;;;;;5049787;28;20053;-47
2021/09/13 05:49:52;;;;;;;1.05;0.20;;;23.70;50.50;;;;;;5051825;28;20056;-46
2021/09/13 05:52:23;;;;;;;0.73;0.45;;;23.80;50.50;;;;;;5047168;28;20041;-47
2021/09/13 05:54:51;;;;;;;3.22;0.47;;;23.80;50.50;;;;;;5045667;28;20041;-49
2021/09/13 05:57:20;;;;;;;1.63;0.43;;;23.80;50.40;;;;;;5045862;28;20424;-47
2021/09/13 05:59:49;;;;;;;2.47;0.40;;;23.80;50.40;;;;;;5044270;28;20041;-49
2021/09/13 06:02:18;;;;;;;4.60;0.20;;;23.90;50.50;;;;;;5046945;28;20044;-47
2021/09/13 06:05:09;;;;;;;2.05;0.30;;;23.90;50.50;;;;;;5043632;28;20038;-48
2021/09/13 06:07:36;;;;;;;1.75;0.30;;;23.90;50.50;;;;;;5043779;28;20525;-48
2021/09/13 06:10:05;;;;;;;1.17;0.75;;;23.90;50.50;;;;;;5062034;28;20037;-48
2021/09/13 06:12:38;;;;;;;0.50;0.45;;;24.00;50.60;;;;;;5045263;28;20041;-47
2021/09/13 06:15:07;;;;;;;1.92;0.47;;;24.00;50.60;;;;;;5044102;28;20044;-49
2021/09/13 06:17:37;;;;;;;5.10;1.05;;;24.00;50.60;;;;;;5044330;28;20404;-54
2021/09/13 06:20:06;;;;;;;3.10;0.82;;;24.10;50.70;;;;;;5043034;28;20512;-62
2021/09/13 06:22:33;;;;;;;6.03;0.50;;;24.10;50.90;;;;;;5045791;28;20098;-51
2021/09/13 06:25:09;;;;;;;1.23;0.55;;;24.10;51.00;;;;;;5060028;28;20080;-59
2021/09/13 06:27:39;;;;;;;7.68;0.68;;;24.20;51.30;;;;;;5046469;28;20417;-53
2021/09/13 06:30:08;;;;;;;3.65;0.82;;;24.20;51.30;;;;;;5044297;28;20128;-57
2021/09/13 06:32:35;;;;;;;3.80;1.00;;;24.20;51.50;;;;;;5046827;28;20037;-56
2021/09/13 06:35:03;;;;;;;6.82;0.90;;;24.20;51.50;;;;;;5045810;28;20070;-62
2021/09/13 06:37:44;;;;;;;5.85;1.30;;;24.30;51.50;;;;;;5042048;28;20042;-61
2021/09/13 06:40:13;;;;;;;4.28;0.75;;;24.30;51.50;;;;;;5040459;28;20052;-61
2021/09/13 06:42:41;;;;;;;9.05;1.40;;;24.40;51.40;;;;;;5046469;28;20440;-62
2021/09/13 06:45:11;;;;;;;1.85;1.15;;;24.40;51.30;;;;;;5032078;28;20051;-62
2021/09/13 06:47:45;;;;;;;6.80;0.80;;;24.40;51.20;;;;;;5047918;28;20045;-62
2021/09/13 06:50:16;;;;;;;6.32;0.70;;;24.50;51.20;;;;;;5043099;28;20128;-62
2021/09/13 06:52:44;;;;;;;4.00;0.60;;;24.50;51.10;;;;;;5044350;28;20128;-61
2021/09/13 06:55:13;;;;;;;1.42;0.40;;;24.50;50.90;;;;;;5042612;28;20053;-63
2021/09/13 06:57:41;;;;;;;2.78;0.65;;;24.50;50.80;;;;;;5045503;28;20140;-62
2021/09/13 07:00:11;;;;;;;1.90;0.30;;;24.60;50.80;;;;;;5047012;28;20029;-63
2021/09/13 07:02:39;;;;;;;3.38;0.85;;;24.60;50.60;;;;;;5046570;28;20044;-62
2021/09/13 07:05:07;;;;;;;3.28;0.40;;;24.60;50.50;;;;;;5047894;28;20037;-62
2021/09/13 07:07:34;;;;;;;2.15;0.70;;;24.60;50.40;;;;;;5045812;28;20048;-62
2021/09/13 07:10:03;;;;;;;4.07;0.40;;;24.60;50.20;;;;;;5047497;28;20417;-61
2021/09/13 07:12:31;;;;;;;1.83;0.30;;;24.60;50.20;;;;;;5046568;28;20132;-62
2021/09/13 07:14:59;;;;;;;2.13;0.30;;;24.70;50.10;;;;;;5031928;28;20044;-61
2021/09/13 07:17:26;;;;;;;3.42;0.60;;;24.70;50.00;;;;;;5048924;28;20041;-61
2021/09/13 07:19:54;;;;;;;1.08;0.20;;;24.70;49.90;;;;;;5044939;28;20049;-61
2021/09/13 07:22:21;;;;;;;3.17;0.80;;;24.80;49.90;;;;;;5044404;28;20519;-62
2021/09/13 07:24:49;;;;;;;0.88;0.25;;;24.80;49.80;;;;;;5046801;28;20520;-63
2021/09/13 07:27:16;;;;;;;2.10;0.50;;;24.80;49.70;;;;;;5047117;28;20041;-62
2021/09/13 07:29:44;;;;;;;1.67;0.50;;;24.80;49.60;;;;;;5046927;28;20095;-62
2021/09/13 07:32:11;;;;;;;2.10;0.65;;;24.80;49.50;;;;;;5033554;28;20507;-61
2021/09/13 07:34:39;;;;;;;1.05;0.40;;;24.80;49.40;;;;;;5037945;28;20041;-62
2021/09/13 07:37:06;;;;;;;2.20;0.93;;;24.90;49.40;;;;;;5039791;28;20114;-62
2021/09/13 07:39:34;;;;;;;5.75;0.80;;;24.90;49.30;;;;;;5046904;28;20065;-62
2021/09/13 07:42:01;;;;;;;5.80;0.68;;;24.90;49.30;;;;;;5046941;28;20731;-62
2021/09/13 07:44:29;;;;;;;1.10;0.98;;;24.90;49.20;;;;;;5048461;28;20045;-62
2021/09/13 07:46:57;;;;;;;1.08;0.30;;;24.90;49.10;;;;;;5046365;28;20652;-62
2021/09/13 07:49:25;;;;;;;2.33;0.60;;;24.90;49.00;;;;;;5046769;28;20118;-61
2021/09/13 07:51:52;;;;;;;2.45;0.40;;;25.00;49.10;;;;;;5046612;28;20056;-62
2021/09/13 07:54:20;;;;;;;1.25;0.95;;;25.00;48.90;;;;;;5046941;28;20041;-61
2021/09/13 07:56:47;;;;;;;4.80;0.75;;;25.00;48.90;;;;;;5045137;28;20073;-61
2021/09/13 07:59:14;;;;;;;2.33;0.63;;;25.00;48.80;;;;;;5048200;28;20041;-61
2021/09/13 08:01:42;;;;;;;2.40;0.93;;;25.10;48.80;;;;;;5046783;28;20505;-61
2021/09/13 08:04:10;;;;;;;1.15;0.38;;;25.10;48.70;;;;;;5046250;28;20464;-62
2021/09/13 08:06:41;;;;;;;2.15;0.93;;;25.10;48.70;;;;;;5049561;28;20053;-62
2021/09/13 08:09:08;;;;;;;2.22;0.60;;;25.10;48.60;;;;;;5050668;28;20060;-61
2021/09/13 08:11:35;;;;;;;1.88;0.32;;;25.20;48.60;;;;;;5050934;28;20640;-61
2021/09/13 08:14:03;;;;;;;2.10;0.60;;;25.20;48.50;;;;;;5050866;28;20053;-61
2021/09/13 08:16:31;;;;;;;2.33;1.00;;;25.20;48.40;;;;;;5042572;28;20108;-62
2021/09/13 08:19:01;;;;;;;2.25;0.50;;;25.20;48.40;;;;;;5042751;28;20051;-62
2021/09/13 08:21:30;;;;;;;1.00;0.55;;;25.30;48.30;;;;;;5050135;28;20512;-62
2021/09/13 08:23:58;;;;;;;2.33;0.43;;;25.30;48.30;;;;;;5049197;28;20043;-62
2021/09/13 08:26:26;;;;;;;2.90;0.20;;;25.30;48.20;;;;;;5047466;28;20134;-62
2021/09/13 08:29:00;;;;;;;1.30;0.50;;;25.30;48.10;;;;;;5051368;28;20045;-62
2021/09/13 08:31:27;;;;;;;1.38;0.50;;;25.30;48.10;;;;;;5046160;28;20072;-62
2021/09/13 08:33:55;;;;;;;1.27;0.65;;;25.40;48.10;;;;;;5047568;28;20040;-62
2021/09/13 08:36:22;;;;;;;1.08;0.40;;;25.40;48.00;;;;;;5050668;28;20041;-62
2021/09/13 08:38:50;;;;;;;1.90;0.43;;;25.40;47.90;;;;;;5049299;28;20056;-61
2021/09/13 08:41:19;;;;;;;3.17;0.90;;;25.40;47.90;;;;;;5051570;28;20041;-62
2021/09/13 08:43:47;;;;;;;1.00;0.50;;;25.40;47.80;;;;;;5049312;28;20049;-62
2021/09/13 08:46:18;;;;;;;3.53;1.17;;;25.40;47.70;;;;;;5049682;28;20114;-62
2021/09/13 08:48:48;;;;;;;1.92;0.50;;;25.50;47.70;;;;;;5049326;28;20501;-61
2021/09/13 08:51:29;;;;;;;2.70;0.43;;;25.50;47.70;;;;;;5050635;28;20040;-61
2021/09/13 08:54:01;;;;;;;1.52;0.43;;;25.60;47.70;;;;;;5049710;28;20124;-63
2021/09/13 08:56:34;;;;;;;0.75;0.73;;;25.60;47.60;;;;;;5047094;28;20521;-62
2021/09/13 08:59:04;;;;;;;0.63;0.50;;;25.60;47.60;;;;;;5050285;28;20065;-62
2021/09/13 09:01:31;;;;;;;0.82;0.20;;;25.60;47.50;;;;;;5049452;28;20029;-62
2021/09/13 09:03:59;;;;;;;1.77;0.50;;;25.60;47.40;;;;;;5049271;28;20044;-62
2021/09/13 09:06:34;;;;;;;1.67;0.22;;;25.60;48.00;;;;;;5047516;28;20049;-62
2021/09/13 09:09:06;;;;;;;1.23;0.47;;;25.70;47.40;;;;;;5034106;28;20151;-62
2021/09/13 09:11:59;;;;;;;1.08;0.52;;;25.70;47.30;;;;;;5049987;28;20041;-62
2021/09/13 09:14:35;;;;;;;1.30;0.30;;;25.70;47.20;;;;;;5050843;28;20049;-62
2021/09/13 09:17:05;;;;;;;1.02;0.50;;;25.70;47.30;;;;;;5048969;28;20044;-62
2021/09/13 09:19:33;;;;;;;6.40;0.63;;;25.70;47.20;;;;;;5046292;28;20072;-62
2021/09/13 09:22:22;;;;;;;2.83;0.55;;;25.80;47.20;;;;;;5048751;28;20520;-66
2021/09/13 09:24:52;;;;;;;6.40;0.80;;;25.80;47.40;;;;;;5048839;28;20057;-62
2021/09/13 09:27:19;;;;;;;3.88;1.77;;;25.80;47.70;;;;;;5049294;28;20112;-63
2021/09/13 09:29:47;;;;;;;5.40;0.65;;;25.80;47.80;;;;;;5048818;28;20040;-55
2021/09/13 09:32:21;;;;;;;6.97;0.60;;;25.80;47.90;;;;;;5049861;28;20052;-46
2021/09/13 09:34:48;;;;;;;6.10;0.57;;;25.90;48.10;;;;;;5045586;28;20065;-53
2021/09/13 09:37:18;;;;;;;2.85;0.88;;;25.90;48.30;;;;;;5048656;28;20098;-54
2021/09/13 09:39:48;;;;;;;2.28;0.68;;;26.00;48.40;;;;;;5048464;28;20033;-60
2021/09/13 09:42:29;;;;;;;2.97;0.90;;;26.10;48.50;;;;;;5048447;28;20036;-49
2021/09/13 09:44:57;;;;;;;4.95;0.32;;;26.20;48.40;;;;;;5048379;28;20041;-51
2021/09/13 09:47:25;;;;;;;3.65;0.50;;;26.20;48.40;;;;;;5046562;28;20045;-53
2021/09/13 09:49:54;;;;;;;3.50;0.63;;;26.30;48.40;;;;;;5047974;28;20515;-51
2021/09/13 09:52:33;;;;;;;1.48;0.30;;;26.30;48.20;;;;;;5047926;28;20505;-47
2021/09/13 09:55:09;;;;;;;3.97;0.30;;;26.50;48.10;;;;;;5044032;28;20049;-52
2021/09/13 09:57:38;;;;;;;0.77;0.30;;;26.50;47.90;;;;;;5037127;28;20079;-48
2021/09/13 10:00:22;;;;;;;3.72;1.10;;;26.60;47.80;;;;;;5047516;28;20045;-55
2021/09/13 10:02:49;;;;;;;2.15;0.20;;;26.80;47.60;;;;;;5041525;28;20052;-59
2021/09/13 10:05:17;;;;;;;4.32;1.10;;;26.80;47.50;;;;;;5049185;28;20045;-51
2021/09/13 10:07:45;;;;;;;2.40;0.60;;;26.90;47.30;;;;;;5047674;28;20044;-50
2021/09/13 10:10:13;;;;;;;2.72;0.40;;;27.00;47.10;;;;;;5046056;28;20045;-49
2021/09/13 10:12:42;;;;;;;4.72;0.40;;;27.10;46.90;;;;;;5046212;28;20120;-51
2021/09/13 10:15:10;;;;;;;0.60;0.50;;;27.20;46.70;;;;;;5043752;28;20424;-50
2021/09/13 10:17:37;;;;;;;4.38;0.20;;;27.30;46.50;;;;;;5044229;28;20610;-53
2021/09/13 10:20:08;;;;;;;1.45;0.20;;;27.40;46.40;;;;;;5044778;28;20072;-55
2021/09/13 10:22:37;;;;;;;0.77;0.30;;;27.50;46.30;;;;;;5044709;28;20048;-61
2021/09/13 10:25:06;;;;;;;3.22;0.20;;;27.50;46.10;;;;;;5043758;28;20061;-63
2021/09/13 10:27:36;;;;;;;1.15;0.25;;;27.60;46.00;;;;;;5044806;28;20069;-59
2021/09/13 10:30:17;;;;;;;4.88;0.35;;;27.70;45.90;;;;;;5041756;28;20779;-58
2021/09/13 10:32:45;;;;;;;2.50;0.88;;;27.80;45.90;;;;;;5045348;28;20098;-58
2021/09/13 10:35:13;;;;;;;2.50;0.30;;;27.80;45.70;;;;;;5048425;28;20128;-59
2021/09/13 10:37:43;;;;;;;0.17;0.10;;;27.90;45.50;;;;;;5045804;28;20409;-55
2021/09/13 10:40:21;;;;;;;1.25;0.22;;;28.00;45.50;;;;;;5046123;28;20041;-59
2021/09/13 10:42:49;;;;;;;1.38;0.50;;;28.00;45.30;;;;;;5046385;28;20120;-55
2021/09/13 10:45:29;;;;;;;0.73;0.20;;;28.10;45.20;;;;;;5045800;28;20528;-59
2021/09/13 10:48:09;;;;;;;0.88;0.30;;;28.20;45.10;;;;;;5046500;28;20132;-54
2021/09/13 10:50:40;;;;;;;1.70;0.57;;;28.20;45.10;;;;;;5045055;28;20040;-60
2021/09/13 10:53:35;;;;;;;0.63;0.22;;;28.30;45.10;;;;;;5047611;28;20090;-53
2021/09/13 10:56:21;;;;;;;1.02;0.22;;;28.40;44.90;;;;;;5045976;28;20148;-47
2021/09/13 10:58:50;;;;;;;1.83;0.30;;;28.40;44.80;;;;;;5044956;28;20049;-59
2021/09/13 11:01:24;;;;;;;1.02;0.20;;;28.40;44.80;;;;;;5041661;28;20076;-62
2021/09/13 11:03:56;;;;;;;0.45;0.45;;;28.50;44.70;;;;;;5045943;28;20481;-64
2021/09/13 11:06:44;;;;;;;3.08;0.32;;;28.60;44.60;;;;;;5045817;28;20041;-61
2021/09/13 11:09:21;;;;;;;0.68;0.20;;;28.60;44.40;;;;;;5033238;28;20412;-62
2021/09/13 11:11:55;;;;;;;1.23;0.20;;;28.70;44.30;;;;;;5044643;28;20037;-56
2021/09/13 11:14:23;;;;;;;4.15;0.10;;;28.70;44.20;;;;;;5047068;28;20185;-58
2021/09/13 11:16:53;;;;;;;1.30;0.20;;;28.70;44.00;;;;;;5045517;28;20040;-56
2021/09/13 11:19:23;;;;;;;1.55;0.30;;;28.90;44.20;;;;;;5043965;28;20575;-50
2021/09/13 11:21:54;;;;;;;0.40;0.10;;;28.90;44.10;;;;;;5045952;28;20068;-52
2021/09/13 11:24:23;;;;;;;0.65;0.13;;;29.00;43.90;;;;;;5045374;28;20080;-53
2021/09/13 11:26:54;;;;;;;3.13;0.57;;;29.00;43.80;;;;;;5045577;28;20596;-62
2021/09/13 11:29:24;;;;;;;0.30;0.25;;;29.10;43.70;;;;;;5047124;28;20037;-59
2021/09/13 11:31:55;;;;;;;0.60;0.20;;;29.20;43.60;;;;;;5045280;28;20045;-55
2021/09/13 11:34:29;;;;;;;1.75;0.10;;;29.20;43.40;;;;;;5039253;28;20095;-58
2021/09/13 11:37:02;;;;;;;3.72;0.30;;;29.30;43.30;;;;;;5046311;28;20065;-57
2021/09/13 11:39:31;;;;;;;1.40;0.10;;;29.40;43.20;;;;;;5045858;28;20041;-56
2021/09/13 11:42:02;;;;;;;3.00;1.08;;;29.40;43.20;;;;;;5038919;28;20033;-60
2021/09/13 11:44:31;;;;;;;1.25;0.20;;;29.40;43.00;;;;;;5038562;28;20052;-59
2021/09/13 11:47:01;;;;;;;0.95;0.20;;;29.40;43.00;;;;;;5044479;28;20124;-60
2021/09/13 11:49:30;;;;;;;0.15;0.10;;;29.50;43.00;;;;;;5045024;28;20037;-59
2021/09/13 11:52:02;;;;;;;0.43;0.43;;;29.40;43.00;;;;;;5042027;28;20067;-59
2021/09/13 11:54:30;;;;;;;2.15;0.20;;;29.50;43.10;;;;;;5042924;28;20068;-59
2021/09/13 11:57:00;;;;;;;1.23;0.20;;;29.50;43.10;;;;;;5045256;28;20112;-60
2021/09/13 11:59:27;;;;;;;4.97;0.20;;;29.50;43.10;;;;;;5044800;28;20502;-58
2021/09/13 12:02:03;;;;;;;0.40;0.20;;;29.60;43.10;;;;;;5045200;28;20126;-55
2021/09/13 12:04:31;;;;;;;4.85;0.20;;;29.60;43.10;;;;;;5044707;28;20452;-55
2021/09/13 12:07:06;;;;;;;0.65;0.10;;;29.60;43.20;;;;;;5044452;28;20037;-56
2021/09/13 12:09:35;;;;;;;0.30;0.10;;;29.60;43.20;;;;;;5045852;28;20044;-57
2021/09/13 12:12:02;;;;;;;1.75;0.10;;;29.60;43.20;;;;;;5038680;28;20045;-57
2021/09/13 12:14:30;;;;;;;0.93;0.10;;;29.60;43.10;;;;;;5044197;28;20073;-57
2021/09/13 12:17:13;;;;;;;2.85;0.25;;;29.60;43.20;;;;;;5046382;28;20136;-58
2021/09/13 12:19:42;;;;;;;0.60;0.20;;;29.60;43.10;;;;;;5043465;28;20052;-57
2021/09/13 12:22:11;;;;;;;1.90;0.22;;;29.60;43.10;;;;;;5045801;28;20068;-56
2021/09/13 12:24:42;;;;;;;0.30;0.10;;;29.70;43.20;;;;;;5045214;28;20048;-57
2021/09/13 12:27:21;;;;;;;0.40;0.20;;;29.70;43.20;;;;;;5045244;28;20536;-58
2021/09/13 12:29:59;;;;;;;0.63;0.30;;;29.70;43.20;;;;;;5042190;28;20044;-57
2021/09/13 12:32:29;;;;;;;0.13;0.10;;;29.70;43.20;;;;;;5031231;28;20048;-57
2021/09/13 12:35:01;;;;;;;0.82;0.13;;;29.70;43.10;;;;;;5045940;28;20045;-56
2021/09/13 12:37:34;;;;;;;1.63;0.13;;;29.70;43.10;;;;;;5040773;28;20037;-57
2021/09/13 12:40:03;;;;;;;0.30;0.10;;;29.70;43.10;;;;;;5045400;28;20052;-58
2021/09/13 12:42:31;;;;;;;1.40;0.20;;;29.70;43.10;;;;;;5043152;28;20061;-56
2021/09/13 12:44:59;;;;;;;1.10;0.10;;;29.70;43.00;;;;;;5045247;28;20059;-56
2021/09/13 12:47:28;;;;;;;0.20;0.20;;;29.70;43.00;;;;;;5046980;28;20048;-58
2021/09/13 12:49:55;;;;;;;0.63;0.10;;;29.80;43.00;;;;;;5044820;28;20041;-58
2021/09/13 12:52:24;;;;;;;0.20;0.10;;;29.80;43.00;;;;;;5047521;28;20037;-59
2021/09/13 12:54:52;;;;;;;1.05;0.30;;;29.80;43.00;;;;;;5047986;28;20067;-56
2021/09/13 12:57:37;;;;;;;0.20;0.10;;;29.80;43.00;;;;;;5048441;28;20041;-58
2021/09/13 13:00:12;;;;;;;0.30;0.20;;;29.90;43.00;;;;;;5040084;28;20095;-60
2021/09/13 13:02:41;;;;;;;;;;;29.80;43.00;;;;;;5047600;28;20033;-58
2021/09/13 13:05:33;;;;;;;2.85;1.00;;;29.80;43.00;;;;;;5047826;28;19928;-56
2021/09/13 13:08:02;;;;;;;6.38;1.00;;;29.80;43.10;;;;;;5047296;28;20068;-55
2021/09/13 13:10:31;;;;;;;1.95;0.10;;;29.80;43.10;;;;;;5045077;28;20520;-57